Thunderstorms From: 25-05-2018 23:09 Until: 26-05-2018 15:00 warning for: Thunderstorms Level: Yellow info button

Although rather usual in this region, locally or potentially dangerous phenomena are expected. (such as local winds, summer thunderstorms, rising streams or high waves) Be aware and pay attention to the latest weather updates, especially if you carry out activities exposed to weather or close to a stream or shoreline. 


Meteo18 Weather Cam more information Meteo18 Weather Cam


warning for Thunderstorms more information blitzortung!


Rain radar more information rain snow radar


Visit our other weather sites:

Template documentation
and downloads

And another site



Weather Underground History page Text

Daily Summary for November 11, 2017 Units:  Both    English   Metric
« Previous Day
Next Day »
Daily Weekly Monthly Yearly Custom
  High: Low: Average:
Temperature: TemperatureC °F /  -17.8 °C 8.0 °F /  -13.3 °C 10.7 °F /  -11.8 °C
Dew Point: DewpointC °F /  -17.8 °C 6.1 °F /  -14.4 °C 9.8 °F /  -12.3 °C
Humidity: Humidity % 85 % 94 %
Wind Speed: WindSpeedKMH mph /  0 km/h - 11.7 mph /  18.8 km/h
Wind Gust: WindSpeedGustKMH mph /  0 km/h - -
Wind:- - West
Pressure: PressurehPa in /  0 hPa 1015.5 in /  34384.8 hPa -
Precipitation: 7.4 in /  187.96 mm    
Historical Graphs
 
 
Tabular Data for November 11, 2017
Time Temperature Dew Point Pressure Wind Wind Speed Wind Gust Humidity Rainfall Rate (Hourly)
TemperatureC °F /  -17.8 °C DewpointC °F /  -17.8 °C PressurehPa in /  0 hPa Calm     Humidity % HourlyPrecipMM in /  0 mm
00:02 9.1 °F /  -12.7 °C 6.7 °F /  -14.1 °C 1024.6 in /  34693 hPa NW 9.7 mph /  15.6 km/h 12.9 mph /  20.8 km/h 85 % 0.0 in /  0 mm
00:07 9.1 °F /  -12.7 °C 6.7 °F /  -14.1 °C 1024.6 in /  34693 hPa WNW 4.8 mph /  7.7 km/h 12.9 mph /  20.8 km/h 85 % 0.0 in /  0 mm
00:12 9.1 °F /  -12.7 °C 6.7 °F /  -14.1 °C 1024.6 in /  34693 hPa WNW 6.4 mph /  10.3 km/h 12.9 mph /  20.8 km/h 85 % 0.0 in /  0 mm
00:17 9.0 °F /  -12.8 °C 6.6 °F /  -14.1 °C 1024.6 in /  34693 hPa WNW 6.4 mph /  10.3 km/h 12.9 mph /  20.8 km/h 85 % 0.0 in /  0 mm
00:22 8.9 °F /  -12.8 °C 6.7 °F /  -14.1 °C 1024.6 in /  34693 hPa NNW 3.2 mph /  5.1 km/h 11.3 mph /  18.2 km/h 86 % 0.0 in /  0 mm
00:32 8.9 °F /  -12.8 °C 6.7 °F /  -14.1 °C 1024.6 in /  34693 hPa WNW 3.2 mph /  5.1 km/h 11.3 mph /  18.2 km/h 86 % 0.0 in /  0 mm
00:42 8.9 °F /  -12.8 °C 6.9 °F /  -13.9 °C 1024.6 in /  34693 hPa SSW 3.2 mph /  5.1 km/h 12.9 mph /  20.8 km/h 87 % 0.0 in /  0 mm
00:47 8.9 °F /  -12.8 °C 6.9 °F /  -13.9 °C 1024.6 in /  34693 hPa NW 3.2 mph /  5.1 km/h 14.5 mph /  23.3 km/h 87 % 0.0 in /  0 mm
00:52 8.9 °F /  -12.8 °C 6.9 °F /  -13.9 °C 1024.6 in /  34693 hPa WSW 1.6 mph /  2.6 km/h 14.5 mph /  23.3 km/h 87 % 0.0 in /  0 mm
00:57 8.9 °F /  -12.8 °C 6.9 °F /  -13.9 °C 1024.3 in /  34682.8 hPa WNW 8.0 mph /  12.9 km/h 14.5 mph /  23.3 km/h 87 % 0.0 in /  0 mm
01:02 8.9 °F /  -12.8 °C 6.9 °F /  -13.9 °C 1024.3 in /  34682.8 hPa WNW 9.7 mph /  15.6 km/h 12.9 mph /  20.8 km/h 87 % 0.0 in /  0 mm
01:07 8.9 °F /  -12.8 °C 6.9 °F /  -13.9 °C 1024.3 in /  34682.8 hPa West 8.0 mph /  12.9 km/h 12.9 mph /  20.8 km/h 87 % 0.0 in /  0 mm
01:12 8.9 °F /  -12.8 °C 6.9 °F /  -13.9 °C 1024.3 in /  34682.8 hPa West 4.8 mph /  7.7 km/h 12.9 mph /  20.8 km/h 87 % 0.0 in /  0 mm
01:17 8.9 °F /  -12.8 °C 6.9 °F /  -13.9 °C 1024.3 in /  34682.8 hPa West 6.4 mph /  10.3 km/h 12.9 mph /  20.8 km/h 87 % 0.0 in /  0 mm
01:22 8.9 °F /  -12.8 °C 6.9 °F /  -13.9 °C 1024.3 in /  34682.8 hPa WSW 4.8 mph /  7.7 km/h 12.9 mph /  20.8 km/h 87 % 0.0 in /  0 mm
01:27 8.9 °F /  -12.8 °C 6.9 °F /  -13.9 °C 1024.3 in /  34682.8 hPa WNW 3.2 mph /  5.1 km/h 14.5 mph /  23.3 km/h 87 % 0.0 in /  0 mm
01:32 8.9 °F /  -12.8 °C 6.9 °F /  -13.9 °C 1024.3 in /  34682.8 hPa West 4.8 mph /  7.7 km/h 14.5 mph /  23.3 km/h 87 % 0.0 in /  0 mm
01:37 8.9 °F /  -12.8 °C 6.9 °F /  -13.9 °C 1024.3 in /  34682.8 hPa WNW 8.0 mph /  12.9 km/h 14.5 mph /  23.3 km/h 87 % 0.0 in /  0 mm
01:42 8.9 °F /  -12.8 °C 6.9 °F /  -13.9 °C 1024.3 in /  34682.8 hPa West 3.2 mph /  5.1 km/h 16.1 mph /  25.9 km/h 87 % 0.0 in /  0 mm
01:47 8.9 °F /  -12.8 °C 7.0 °F /  -13.9 °C 1024.3 in /  34682.8 hPa WNW 1.6 mph /  2.6 km/h 16.1 mph /  25.9 km/h 88 % 0.0 in /  0 mm
01:52 8.9 °F /  -12.8 °C 7.0 °F /  -13.9 °C 1024.3 in /  34682.8 hPa WNW 3.2 mph /  5.1 km/h 16.1 mph /  25.9 km/h 88 % 0.0 in /  0 mm
01:57 8.9 °F /  -12.8 °C 7.0 °F /  -13.9 °C 1024.3 in /  34682.8 hPa West 1.6 mph /  2.6 km/h 9.7 mph /  15.6 km/h 88 % 0.0 in /  0 mm
02:02 8.8 °F /  -12.9 °C 6.9 °F /  -13.9 °C 1024.3 in /  34682.8 hPa WNW 9.7 mph /  15.6 km/h 9.7 mph /  15.6 km/h 88 % 0.0 in /  0 mm
02:07 8.9 °F /  -12.8 °C 7.0 °F /  -13.9 °C 1024.3 in /  34682.8 hPa WNW 6.4 mph /  10.3 km/h 11.3 mph /  18.2 km/h 88 % 0.0 in /  0 mm
02:12 8.9 °F /  -12.8 °C 7.0 °F /  -13.9 °C 1024.3 in /  34682.8 hPa WNW 4.8 mph /  7.7 km/h 11.3 mph /  18.2 km/h 88 % 0.0 in /  0 mm
02:17 8.8 °F /  -12.9 °C 6.8 °F /  -14 °C 1024.3 in /  34682.8 hPa West 4.8 mph /  7.7 km/h 11.3 mph /  18.2 km/h 87 % 0.0 in /  0 mm
02:22 8.8 °F /  -12.9 °C 6.8 °F /  -14 °C 1024.3 in /  34682.8 hPa WSW 4.8 mph /  7.7 km/h 11.3 mph /  18.2 km/h 87 % 0.0 in /  0 mm
02:27 8.7 °F /  -12.9 °C 6.8 °F /  -14 °C 1024.3 in /  34682.8 hPa WSW 3.2 mph /  5.1 km/h 8.0 mph /  12.9 km/h 88 % 0.0 in /  0 mm
02:32 8.7 °F /  -12.9 °C 6.8 °F /  -14 °C 1024.3 in /  34682.8 hPa WSW 6.4 mph /  10.3 km/h 8.0 mph /  12.9 km/h 88 % 0.0 in /  0 mm
02:37 8.7 °F /  -12.9 °C 6.8 °F /  -14 °C 1024.3 in /  34682.8 hPa WSW 3.2 mph /  5.1 km/h 8.0 mph /  12.9 km/h 88 % 0.0 in /  0 mm
02:42 8.0 °F /  -13.3 °C 6.1 °F /  -14.4 °C 1024.3 in /  34682.8 hPa West 1.6 mph /  2.6 km/h 8.0 mph /  12.9 km/h 88 % 0.0 in /  0 mm
02:52 8.2 °F /  -13.2 °C 6.3 °F /  -14.3 °C 1023.9 in /  34669.3 hPa Calm   4.8 mph /  7.7 km/h 88 % 0.0 in /  0 mm
02:57 8.2 °F /  -13.2 °C 6.3 °F /  -14.3 °C 1024.3 in /  34682.8 hPa Calm   3.2 mph /  5.1 km/h 88 % 0.0 in /  0 mm
08:42 8.5 °F /  -13.1 °C 7.9 °F /  -13.4 °C 1020.5 in /  34554.1 hPa SW 20.9 mph /  33.6 km/h 25.7 mph /  41.4 km/h 96 % 0.0 in /  0 mm
08:47 8.5 °F /  -13.1 °C 7.9 °F /  -13.4 °C 1020.5 in /  34554.1 hPa SW 9.7 mph /  15.6 km/h 25.7 mph /  41.4 km/h 96 % 0.0 in /  0 mm
08:52 8.6 °F /  -13 °C 8.0 °F /  -13.3 °C 1020.5 in /  34554.1 hPa WSW 16.1 mph /  25.9 km/h 25.7 mph /  41.4 km/h 96 % 0.0 in /  0 mm
09:02 8.6 °F /  -13 °C 8.0 °F /  -13.3 °C 1020.5 in /  34554.1 hPa SW 14.5 mph /  23.3 km/h 29.0 mph /  46.7 km/h 96 % 0.0 in /  0 mm
09:07 8.6 °F /  -13 °C 8.0 °F /  -13.3 °C 1020.5 in /  34554.1 hPa WSW 4.8 mph /  7.7 km/h 29.0 mph /  46.7 km/h 96 % 0.0 in /  0 mm
09:12 8.6 °F /  -13 °C 8.0 °F /  -13.3 °C 1020.5 in /  34554.1 hPa West 17.7 mph /  28.5 km/h 29.0 mph /  46.7 km/h 96 % 0.3 in /  7.62 mm
09:17 8.6 °F /  -13 °C 8.0 °F /  -13.3 °C 1020.5 in /  34554.1 hPa West 8.0 mph /  12.9 km/h 29.0 mph /  46.7 km/h 96 % 0.3 in /  7.62 mm
09:22 8.7 °F /  -12.9 °C 8.1 °F /  -13.3 °C 1020.5 in /  34554.1 hPa WSW 9.7 mph /  15.6 km/h 29.0 mph /  46.7 km/h 96 % 0.3 in /  7.62 mm
09:27 8.7 °F /  -12.9 °C 8.1 °F /  -13.3 °C 1020.5 in /  34554.1 hPa West 9.7 mph /  15.6 km/h 30.6 mph /  49.2 km/h 96 % 0.3 in /  7.62 mm
09:32 8.7 °F /  -12.9 °C 8.1 °F /  -13.3 °C 1020.5 in /  34554.1 hPa SW 12.9 mph /  20.8 km/h 30.6 mph /  49.2 km/h 96 % 0.3 in /  7.62 mm
09:37 8.8 °F /  -12.9 °C 8.2 °F /  -13.2 °C 1020.5 in /  34554.1 hPa West 12.9 mph /  20.8 km/h 27.4 mph /  44.1 km/h 96 % 0.3 in /  7.62 mm
09:42 8.8 °F /  -12.9 °C 8.2 °F /  -13.2 °C 1020.5 in /  34554.1 hPa SW 16.1 mph /  25.9 km/h 27.4 mph /  44.1 km/h 96 % 0.3 in /  7.62 mm
09:47 8.8 °F /  -12.9 °C 8.2 °F /  -13.2 °C 1020.2 in /  34544 hPa SW 14.5 mph /  23.3 km/h 27.4 mph /  44.1 km/h 96 % 0.5 in /  12.7 mm
09:57 8.9 °F /  -12.8 °C 8.3 °F /  -13.2 °C 1020.5 in /  34554.1 hPa WSW 4.8 mph /  7.7 km/h 22.5 mph /  36.2 km/h 96 % 0.5 in /  12.7 mm
10:02 9.0 °F /  -12.8 °C 8.4 °F /  -13.1 °C 1020.2 in /  34544 hPa WSW 9.7 mph /  15.6 km/h 27.4 mph /  44.1 km/h 96 % 0.5 in /  12.7 mm
10:12 9.1 °F /  -12.7 °C 8.5 °F /  -13.1 °C 1020.2 in /  34544 hPa West 19.3 mph /  31.1 km/h 32.2 mph /  51.8 km/h 96 % 0.5 in /  12.7 mm
10:17 9.1 °F /  -12.7 °C 8.5 °F /  -13.1 °C 1019.9 in /  34533.8 hPa West 16.1 mph /  25.9 km/h 32.2 mph /  51.8 km/h 96 % 0.5 in /  12.7 mm
10:27 9.2 °F /  -12.7 °C 8.6 °F /  -13 °C 1020.2 in /  34544 hPa WSW 8.0 mph /  12.9 km/h 25.7 mph /  41.4 km/h 96 % 1.0 in /  25.4 mm
10:32 9.2 °F /  -12.7 °C 8.6 °F /  -13 °C 1019.9 in /  34533.8 hPa SW 11.3 mph /  18.2 km/h 25.7 mph /  41.4 km/h 96 % 1.0 in /  25.4 mm
10:42 9.3 °F /  -12.6 °C 8.7 °F /  -12.9 °C 1019.9 in /  34533.8 hPa SW 9.7 mph /  15.6 km/h 25.7 mph /  41.4 km/h 96 % 0.8 in /  20.32 mm
10:47 9.3 °F /  -12.6 °C 8.7 °F /  -12.9 °C 1019.9 in /  34533.8 hPa SW 20.9 mph /  33.6 km/h 27.4 mph /  44.1 km/h 96 % 0.8 in /  20.32 mm
10:52 9.3 °F /  -12.6 °C 8.7 °F /  -12.9 °C 1019.9 in /  34533.8 hPa West 20.9 mph /  33.6 km/h 27.4 mph /  44.1 km/h 96 % 0.8 in /  20.32 mm
10:57 9.4 °F /  -12.6 °C 8.8 °F /  -12.9 °C 1019.9 in /  34533.8 hPa SW 17.7 mph /  28.5 km/h 27.4 mph /  44.1 km/h 96 % 0.8 in /  20.32 mm
11:02 9.4 °F /  -12.6 °C 8.8 °F /  -12.9 °C 1019.5 in /  34520.3 hPa WSW 12.9 mph /  20.8 km/h 24.1 mph /  38.8 km/h 96 % 0.5 in /  12.7 mm
11:12 9.6 °F /  -12.4 °C 9.0 °F /  -12.8 °C 1019.5 in /  34520.3 hPa SW 14.5 mph /  23.3 km/h 35.4 mph /  57 km/h 96 % 0.8 in /  20.32 mm
11:17 9.6 °F /  -12.4 °C 9.0 °F /  -12.8 °C 1019.5 in /  34520.3 hPa SSW 14.5 mph /  23.3 km/h 35.4 mph /  57 km/h 96 % 0.8 in /  20.32 mm
11:27 9.7 °F /  -12.4 °C 9.1 °F /  -12.7 °C 1019.5 in /  34520.3 hPa West 17.7 mph /  28.5 km/h 25.7 mph /  41.4 km/h 96 % 0.5 in /  12.7 mm
11:32 9.8 °F /  -12.3 °C 9.2 °F /  -12.7 °C 1019.5 in /  34520.3 hPa WSW 11.3 mph /  18.2 km/h 25.7 mph /  41.4 km/h 96 % 0.5 in /  12.7 mm
11:42 9.8 °F /  -12.3 °C 9.2 °F /  -12.7 °C 1019.2 in /  34510.1 hPa SW 12.9 mph /  20.8 km/h 30.6 mph /  49.2 km/h 96 % 0.5 in /  12.7 mm
11:47 9.9 °F /  -12.3 °C 9.3 °F /  -12.6 °C 1019.2 in /  34510.1 hPa West 12.9 mph /  20.8 km/h 30.6 mph /  49.2 km/h 96 % 0.5 in /  12.7 mm
11:52 9.9 °F /  -12.3 °C 9.3 °F /  -12.6 °C 1018.8 in /  34496.6 hPa WSW 11.3 mph /  18.2 km/h 25.7 mph /  41.4 km/h 96 % 0.3 in /  7.62 mm
11:57 10.0 °F /  -12.2 °C 9.4 °F /  -12.6 °C 1018.8 in /  34496.6 hPa WSW 11.3 mph /  18.2 km/h 29.0 mph /  46.7 km/h 96 % 0.3 in /  7.62 mm
12:02 10.1 °F /  -12.2 °C 9.5 °F /  -12.5 °C 1018.5 in /  34486.4 hPa WSW 17.7 mph /  28.5 km/h 29.0 mph /  46.7 km/h 96 % 0.3 in /  7.62 mm
12:12 10.2 °F /  -12.1 °C 9.6 °F /  -12.4 °C 1018.5 in /  34486.4 hPa SW 9.7 mph /  15.6 km/h 33.8 mph /  54.4 km/h 96 % 0.3 in /  7.62 mm
12:22 10.3 °F /  -12.1 °C 9.7 °F /  -12.4 °C 1018.5 in /  34486.4 hPa WSW 11.3 mph /  18.2 km/h 33.8 mph /  54.4 km/h 96 % 0.3 in /  7.62 mm
12:32 10.4 °F /  -12 °C 9.8 °F /  -12.3 °C 1018.2 in /  34476.3 hPa West 17.7 mph /  28.5 km/h 30.6 mph /  49.2 km/h 96 % 0.3 in /  7.62 mm
12:42 10.5 °F /  -11.9 °C 9.9 °F /  -12.3 °C 1017.8 in /  34462.7 hPa SW 9.7 mph /  15.6 km/h 30.6 mph /  49.2 km/h 96 % 0.5 in /  12.7 mm
12:47 10.5 °F /  -11.9 °C 9.9 °F /  -12.3 °C 1017.8 in /  34462.7 hPa West 11.3 mph /  18.2 km/h 30.6 mph /  49.2 km/h 96 % 0.5 in /  12.7 mm
12:52 10.6 °F /  -11.9 °C 10.0 °F /  -12.2 °C 1017.8 in /  34462.7 hPa West 16.1 mph /  25.9 km/h 30.6 mph /  49.2 km/h 96 % 0.5 in /  12.7 mm
13:02 10.6 °F /  -11.9 °C 9.8 °F /  -12.3 °C 1017.8 in /  34462.7 hPa SW 27.4 mph /  44.1 km/h 29.0 mph /  46.7 km/h 95 % 0.5 in /  12.7 mm
13:12 10.8 °F /  -11.8 °C 10.0 °F /  -12.2 °C 1017.8 in /  34462.7 hPa West 19.3 mph /  31.1 km/h 32.2 mph /  51.8 km/h 95 % 0.5 in /  12.7 mm
13:17 10.8 °F /  -11.8 °C 10.0 °F /  -12.2 °C 1017.8 in /  34462.7 hPa West 16.1 mph /  25.9 km/h 32.2 mph /  51.8 km/h 95 % 0.8 in /  20.32 mm
13:22 10.8 °F /  -11.8 °C 10.0 °F /  -12.2 °C 1017.5 in /  34452.6 hPa SW 11.3 mph /  18.2 km/h 32.2 mph /  51.8 km/h 95 % 1.0 in /  25.4 mm
13:27 10.9 °F /  -11.7 °C 10.1 °F /  -12.2 °C 1017.5 in /  34452.6 hPa West 14.5 mph /  23.3 km/h 29.0 mph /  46.7 km/h 95 % 1.0 in /  25.4 mm
13:32 10.9 °F /  -11.7 °C 10.1 °F /  -12.2 °C 1017.5 in /  34452.6 hPa WSW 16.1 mph /  25.9 km/h 29.0 mph /  46.7 km/h 95 % 1.3 in /  33.02 mm
13:37 10.9 °F /  -11.7 °C 10.1 °F /  -12.2 °C 1017.5 in /  34452.6 hPa WSW 9.7 mph /  15.6 km/h 29.0 mph /  46.7 km/h 95 % 1.5 in /  38.1 mm
13:42 10.9 °F /  -11.7 °C 10.1 °F /  -12.2 °C 1017.5 in /  34452.6 hPa SW 12.9 mph /  20.8 km/h 29.0 mph /  46.7 km/h 95 % 1.3 in /  33.02 mm
13:47 11.0 °F /  -11.7 °C 10.2 °F /  -12.1 °C 1017.2 in /  34442.4 hPa West 8.0 mph /  12.9 km/h 27.4 mph /  44.1 km/h 95 % 1.5 in /  38.1 mm
13:57 11.1 °F /  -11.6 °C 10.3 °F /  -12.1 °C 1017.2 in /  34442.4 hPa West 8.0 mph /  12.9 km/h 33.8 mph /  54.4 km/h 95 % 1.5 in /  38.1 mm
14:02 11.1 °F /  -11.6 °C 10.3 °F /  -12.1 °C 1016.8 in /  34428.8 hPa SW 14.5 mph /  23.3 km/h 33.8 mph /  54.4 km/h 95 % 1.3 in /  33.02 mm
14:07 11.1 °F /  -11.6 °C 10.3 °F /  -12.1 °C 1016.8 in /  34428.8 hPa WSW 27.4 mph /  44.1 km/h 32.2 mph /  51.8 km/h 95 % 1.5 in /  38.1 mm
14:12 11.1 °F /  -11.6 °C 10.3 °F /  -12.1 °C 1016.8 in /  34428.8 hPa West 22.5 mph /  36.2 km/h 29.0 mph /  46.7 km/h 95 % 1.5 in /  38.1 mm
14:17 11.1 °F /  -11.6 °C 10.3 °F /  -12.1 °C 1016.8 in /  34428.8 hPa WSW 16.1 mph /  25.9 km/h 29.0 mph /  46.7 km/h 95 % 1.3 in /  33.02 mm
14:22 11.1 °F /  -11.6 °C 10.3 °F /  -12.1 °C 1016.5 in /  34418.7 hPa West 12.9 mph /  20.8 km/h 29.0 mph /  46.7 km/h 95 % 1.3 in /  33.02 mm
14:27 11.1 °F /  -11.6 °C 10.3 °F /  -12.1 °C 1016.5 in /  34418.7 hPa WSW 16.1 mph /  25.9 km/h 27.4 mph /  44.1 km/h 95 % 1.3 in /  33.02 mm
14:32 11.1 °F /  -11.6 °C 10.3 °F /  -12.1 °C 1016.5 in /  34418.7 hPa WSW 9.7 mph /  15.6 km/h 27.4 mph /  44.1 km/h 95 % 1.3 in /  33.02 mm
14:37 11.1 °F /  -11.6 °C 10.3 °F /  -12.1 °C 1016.5 in /  34418.7 hPa WSW 20.9 mph /  33.6 km/h 27.4 mph /  44.1 km/h 95 % 1.3 in /  33.02 mm
14:42 11.1 °F /  -11.6 °C 10.3 °F /  -12.1 °C 1016.5 in /  34418.7 hPa WSW 6.4 mph /  10.3 km/h 27.4 mph /  44.1 km/h 95 % 1.3 in /  33.02 mm
14:47 11.1 °F /  -11.6 °C 10.3 °F /  -12.1 °C 1016.1 in /  34405.1 hPa WSW 16.1 mph /  25.9 km/h 27.4 mph /  44.1 km/h 95 % 1.5 in /  38.1 mm
14:52 11.1 °F /  -11.6 °C 10.3 °F /  -12.1 °C 1016.1 in /  34405.1 hPa WSW 19.3 mph /  31.1 km/h 27.4 mph /  44.1 km/h 95 % 1.5 in /  38.1 mm
14:57 11.2 °F /  -11.6 °C 10.4 °F /  -12 °C 1016.1 in /  34405.1 hPa SW 14.5 mph /  23.3 km/h 27.4 mph /  44.1 km/h 95 % 1.5 in /  38.1 mm
15:02 11.2 °F /  -11.6 °C 10.4 °F /  -12 °C 1016.1 in /  34405.1 hPa WSW 11.3 mph /  18.2 km/h 27.4 mph /  44.1 km/h 95 % 1.5 in /  38.1 mm
15:12 11.2 °F /  -11.6 °C 10.4 °F /  -12 °C 1016.1 in /  34405.1 hPa WSW 12.9 mph /  20.8 km/h 27.4 mph /  44.1 km/h 95 % 1.5 in /  38.1 mm
15:17 11.2 °F /  -11.6 °C 10.4 °F /  -12 °C 1016.1 in /  34405.1 hPa West 9.7 mph /  15.6 km/h 24.1 mph /  38.8 km/h 95 % 1.5 in /  38.1 mm
15:22 11.2 °F /  -11.6 °C 10.4 °F /  -12 °C 1016.1 in /  34405.1 hPa West 16.1 mph /  25.9 km/h 24.1 mph /  38.8 km/h 95 % 1.5 in /  38.1 mm
15:27 11.3 °F /  -11.5 °C 10.5 °F /  -11.9 °C 1016.1 in /  34405.1 hPa West 16.1 mph /  25.9 km/h 25.7 mph /  41.4 km/h 95 % 1.5 in /  38.1 mm
15:32 11.3 °F /  -11.5 °C 10.5 °F /  -11.9 °C 1016.1 in /  34405.1 hPa WSW 11.3 mph /  18.2 km/h 25.7 mph /  41.4 km/h 95 % 1.5 in /  38.1 mm
15:37 11.3 °F /  -11.5 °C 10.5 °F /  -11.9 °C 1016.1 in /  34405.1 hPa West 9.7 mph /  15.6 km/h 25.7 mph /  41.4 km/h 95 % 1.3 in /  33.02 mm
15:42 11.3 °F /  -11.5 °C 10.5 °F /  -11.9 °C 1016.1 in /  34405.1 hPa West 12.9 mph /  20.8 km/h 25.7 mph /  41.4 km/h 95 % 1.3 in /  33.02 mm
15:47 11.3 °F /  -11.5 °C 10.5 °F /  -11.9 °C 1016.1 in /  34405.1 hPa West 17.7 mph /  28.5 km/h 25.7 mph /  41.4 km/h 95 % 1.0 in /  25.4 mm
15:52 11.3 °F /  -11.5 °C 10.5 °F /  -11.9 °C 1015.8 in /  34395 hPa West 14.5 mph /  23.3 km/h 24.1 mph /  38.8 km/h 95 % 1.0 in /  25.4 mm
15:57 11.4 °F /  -11.4 °C 10.6 °F /  -11.9 °C 1015.8 in /  34395 hPa WSW 16.1 mph /  25.9 km/h 27.4 mph /  44.1 km/h 95 % 1.0 in /  25.4 mm
16:02 11.4 °F /  -11.4 °C 10.6 °F /  -11.9 °C 1015.8 in /  34395 hPa West 11.3 mph /  18.2 km/h 27.4 mph /  44.1 km/h 95 % 0.8 in /  20.32 mm
16:07 11.4 °F /  -11.4 °C 10.6 °F /  -11.9 °C 1015.8 in /  34395 hPa West 14.5 mph /  23.3 km/h 27.4 mph /  44.1 km/h 95 % 0.8 in /  20.32 mm
16:12 11.4 °F /  -11.4 °C 10.8 °F /  -11.8 °C 1015.8 in /  34395 hPa SW 12.9 mph /  20.8 km/h 25.7 mph /  41.4 km/h 96 % 0.8 in /  20.32 mm
16:17 11.4 °F /  -11.4 °C 10.8 °F /  -11.8 °C 1015.8 in /  34395 hPa WSW 12.9 mph /  20.8 km/h 25.7 mph /  41.4 km/h 96 % 1.0 in /  25.4 mm
16:22 11.4 °F /  -11.4 °C 10.8 °F /  -11.8 °C 1015.8 in /  34395 hPa West 17.7 mph /  28.5 km/h 25.7 mph /  41.4 km/h 96 % 0.8 in /  20.32 mm
16:27 11.4 °F /  -11.4 °C 10.8 °F /  -11.8 °C 1015.5 in /  34384.8 hPa WSW 17.7 mph /  28.5 km/h 27.4 mph /  44.1 km/h 96 % 0.8 in /  20.32 mm
16:37 11.5 °F /  -11.4 °C 10.9 °F /  -11.7 °C 1015.5 in /  34384.8 hPa West 14.5 mph /  23.3 km/h 27.4 mph /  44.1 km/h 96 % 0.8 in /  20.32 mm
16:42 11.5 °F /  -11.4 °C 10.9 °F /  -11.7 °C 1015.5 in /  34384.8 hPa WSW 19.3 mph /  31.1 km/h 29.0 mph /  46.7 km/h 96 % 0.8 in /  20.32 mm
16:47 11.5 °F /  -11.4 °C 10.9 °F /  -11.7 °C 1015.5 in /  34384.8 hPa WNW 19.3 mph /  31.1 km/h 29.0 mph /  46.7 km/h 96 % 0.5 in /  12.7 mm
16:52 11.6 °F /  -11.3 °C 11.0 °F /  -11.7 °C 1015.5 in /  34384.8 hPa West 16.1 mph /  25.9 km/h 25.7 mph /  41.4 km/h 96 % 0.5 in /  12.7 mm
16:57 11.6 °F /  -11.3 °C 11.0 °F /  -11.7 °C 1015.5 in /  34384.8 hPa SW 8.0 mph /  12.9 km/h 29.0 mph /  46.7 km/h 96 % 0.5 in /  12.7 mm
17:02 11.6 °F /  -11.3 °C 11.0 °F /  -11.7 °C 1015.5 in /  34384.8 hPa West 12.9 mph /  20.8 km/h 29.0 mph /  46.7 km/h 96 % 0.5 in /  12.7 mm
17:07 11.6 °F /  -11.3 °C 11.0 °F /  -11.7 °C 1015.5 in /  34384.8 hPa SW 9.7 mph /  15.6 km/h 29.0 mph /  46.7 km/h 96 % 0.5 in /  12.7 mm
17:12 11.6 °F /  -11.3 °C 11.0 °F /  -11.7 °C 1015.5 in /  34384.8 hPa West 6.4 mph /  10.3 km/h 25.7 mph /  41.4 km/h 96 % 0.5 in /  12.7 mm
17:17 11.6 °F /  -11.3 °C 11.0 °F /  -11.7 °C 1015.5 in /  34384.8 hPa WSW 8.0 mph /  12.9 km/h 27.4 mph /  44.1 km/h 96 % 0.3 in /  7.62 mm
17:22 11.6 °F /  -11.3 °C 11.0 °F /  -11.7 °C 1015.5 in /  34384.8 hPa West 17.7 mph /  28.5 km/h 27.4 mph /  44.1 km/h 96 % 0.5 in /  12.7 mm
17:27 11.6 °F /  -11.3 °C 11.0 °F /  -11.7 °C 1015.5 in /  34384.8 hPa West 11.3 mph /  18.2 km/h 24.1 mph /  38.8 km/h 96 % 0.5 in /  12.7 mm
17:32 11.6 °F /  -11.3 °C 11.0 °F /  -11.7 °C 1015.5 in /  34384.8 hPa West 11.3 mph /  18.2 km/h 24.1 mph /  38.8 km/h 96 % 0.5 in /  12.7 mm
17:37 11.6 °F /  -11.3 °C 11.0 °F /  -11.7 °C 1015.5 in /  34384.8 hPa WSW 16.1 mph /  25.9 km/h 22.5 mph /  36.2 km/h 96 % 0.3 in /  7.62 mm
17:47 11.6 °F /  -11.3 °C 11.0 °F /  -11.7 °C 1015.5 in /  34384.8 hPa West 9.7 mph /  15.6 km/h 25.7 mph /  41.4 km/h 96 % 0.3 in /  7.62 mm
17:52 11.7 °F /  -11.3 °C 11.1 °F /  -11.6 °C 1015.5 in /  34384.8 hPa West 11.3 mph /  18.2 km/h 25.7 mph /  41.4 km/h 96 % 0.3 in /  7.62 mm
17:57 11.7 °F /  -11.3 °C 11.1 °F /  -11.6 °C 1015.5 in /  34384.8 hPa West 6.4 mph /  10.3 km/h 25.7 mph /  41.4 km/h 96 % 0.3 in /  7.62 mm
18:02 11.7 °F /  -11.3 °C 11.1 °F /  -11.6 °C 1015.5 in /  34384.8 hPa WSW 11.3 mph /  18.2 km/h 24.1 mph /  38.8 km/h 96 % 0.5 in /  12.7 mm
18:07 11.7 °F /  -11.3 °C 11.1 °F /  -11.6 °C 1015.5 in /  34384.8 hPa West 12.9 mph /  20.8 km/h 22.5 mph /  36.2 km/h 96 % 0.5 in /  12.7 mm
18:12 11.7 °F /  -11.3 °C 11.1 °F /  -11.6 °C 1015.5 in /  34384.8 hPa WSW 8.0 mph /  12.9 km/h 22.5 mph /  36.2 km/h 96 % 0.5 in /  12.7 mm
18:17 11.8 °F /  -11.2 °C 11.2 °F /  -11.6 °C 1015.5 in /  34384.8 hPa West 12.9 mph /  20.8 km/h 20.9 mph /  33.6 km/h 96 % 0.3 in /  7.62 mm
18:22 11.8 °F /  -11.2 °C 11.2 °F /  -11.6 °C 1015.5 in /  34384.8 hPa West 17.7 mph /  28.5 km/h 20.9 mph /  33.6 km/h 96 % 0.3 in /  7.62 mm
18:32 11.8 °F /  -11.2 °C 11.2 °F /  -11.6 °C 1015.5 in /  34384.8 hPa West 11.3 mph /  18.2 km/h 20.9 mph /  33.6 km/h 96 % 0.3 in /  7.62 mm
18:42 11.9 °F /  -11.2 °C 11.3 °F /  -11.5 °C 1015.5 in /  34384.8 hPa WSW 8.0 mph /  12.9 km/h 19.3 mph /  31.1 km/h 96 % 0.3 in /  7.62 mm
18:47 11.8 °F /  -11.2 °C 11.2 °F /  -11.6 °C 1015.5 in /  34384.8 hPa WNW 14.5 mph /  23.3 km/h 19.3 mph /  31.1 km/h 96 % 0.3 in /  7.62 mm
18:52 11.9 °F /  -11.2 °C 11.3 °F /  -11.5 °C 1015.5 in /  34384.8 hPa West 11.3 mph /  18.2 km/h 19.3 mph /  31.1 km/h 96 % 0.3 in /  7.62 mm
18:57 11.9 °F /  -11.2 °C 11.3 °F /  -11.5 °C 1015.5 in /  34384.8 hPa West 11.3 mph /  18.2 km/h 29.0 mph /  46.7 km/h 96 % 0.0 in /  0 mm
19:02 11.9 °F /  -11.2 °C 11.3 °F /  -11.5 °C 1015.5 in /  34384.8 hPa WSW 6.4 mph /  10.3 km/h 29.0 mph /  46.7 km/h 96 % 0.0 in /  0 mm
19:07 11.9 °F /  -11.2 °C 11.3 °F /  -11.5 °C 1015.5 in /  34384.8 hPa West 8.0 mph /  12.9 km/h 29.0 mph /  46.7 km/h 96 % 0.0 in /  0 mm
19:12 11.9 °F /  -11.2 °C 11.3 °F /  -11.5 °C 1015.5 in /  34384.8 hPa West 11.3 mph /  18.2 km/h 25.7 mph /  41.4 km/h 96 % 0.3 in /  7.62 mm
19:17 11.9 °F /  -11.2 °C 11.3 °F /  -11.5 °C 1015.5 in /  34384.8 hPa West 14.5 mph /  23.3 km/h 25.7 mph /  41.4 km/h 96 % 0.3 in /  7.62 mm
19:27 12.0 °F /  -11.1 °C 11.4 °F /  -11.4 °C 1015.5 in /  34384.8 hPa West 11.3 mph /  18.2 km/h 25.7 mph /  41.4 km/h 96 % 0.3 in /  7.62 mm
19:32 12.0 °F /  -11.1 °C 11.4 °F /  -11.4 °C 1015.5 in /  34384.8 hPa West 12.9 mph /  20.8 km/h 25.7 mph /  41.4 km/h 96 % 0.3 in /  7.62 mm
19:37 12.1 °F /  -11.1 °C 11.5 °F /  -11.4 °C 1015.8 in /  34395 hPa WNW 14.5 mph /  23.3 km/h 25.7 mph /  41.4 km/h 96 % 0.3 in /  7.62 mm
19:42 12.1 °F /  -11.1 °C 11.5 °F /  -11.4 °C 1015.8 in /  34395 hPa WNW 9.7 mph /  15.6 km/h 25.7 mph /  41.4 km/h 96 % 0.3 in /  7.62 mm
19:47 12.1 °F /  -11.1 °C 11.5 °F /  -11.4 °C 1015.8 in /  34395 hPa West 14.5 mph /  23.3 km/h 25.7 mph /  41.4 km/h 96 % 0.3 in /  7.62 mm
19:52 12.1 °F /  -11.1 °C 11.5 °F /  -11.4 °C 1015.8 in /  34395 hPa WSW 16.1 mph /  25.9 km/h 24.1 mph /  38.8 km/h 96 % 0.3 in /  7.62 mm
19:57 12.1 °F /  -11.1 °C 11.5 °F /  -11.4 °C 1015.8 in /  34395 hPa West 8.0 mph /  12.9 km/h 20.9 mph /  33.6 km/h 96 % 0.3 in /  7.62 mm
20:02 12.1 °F /  -11.1 °C 11.5 °F /  -11.4 °C 1015.8 in /  34395 hPa SW 12.9 mph /  20.8 km/h 24.1 mph /  38.8 km/h 96 % 0.3 in /  7.62 mm
20:07 12.1 °F /  -11.1 °C 11.5 °F /  -11.4 °C 1015.8 in /  34395 hPa West 14.5 mph /  23.3 km/h 24.1 mph /  38.8 km/h 96 % 0.0 in /  0 mm
20:12 12.1 °F /  -11.1 °C 11.5 °F /  -11.4 °C 1015.8 in /  34395 hPa West 9.7 mph /  15.6 km/h 24.1 mph /  38.8 km/h 96 % 0.0 in /  0 mm
20:17 12.1 °F /  -11.1 °C 11.5 °F /  -11.4 °C 1015.8 in /  34395 hPa West 4.8 mph /  7.7 km/h 22.5 mph /  36.2 km/h 96 % 0.0 in /  0 mm
20:22 12.1 °F /  -11.1 °C 11.5 °F /  -11.4 °C 1015.8 in /  34395 hPa WSW 20.9 mph /  33.6 km/h 22.5 mph /  36.2 km/h 96 % 0.0 in /  0 mm
20:27 12.1 °F /  -11.1 °C 11.5 °F /  -11.4 °C 1015.8 in /  34395 hPa West 8.0 mph /  12.9 km/h 25.7 mph /  41.4 km/h 96 % 0.0 in /  0 mm
20:32 12.1 °F /  -11.1 °C 11.5 °F /  -11.4 °C 1015.8 in /  34395 hPa WSW 14.5 mph /  23.3 km/h 25.7 mph /  41.4 km/h 96 % 0.0 in /  0 mm
20:37 12.1 °F /  -11.1 °C 11.5 °F /  -11.4 °C 1015.8 in /  34395 hPa SW 14.5 mph /  23.3 km/h 25.7 mph /  41.4 km/h 96 % 0.0 in /  0 mm
20:42 12.1 °F /  -11.1 °C 11.5 °F /  -11.4 °C 1015.8 in /  34395 hPa WSW 19.3 mph /  31.1 km/h 20.9 mph /  33.6 km/h 96 % 0.0 in /  0 mm
20:52 12.1 °F /  -11.1 °C 11.5 °F /  -11.4 °C 1015.8 in /  34395 hPa West 11.3 mph /  18.2 km/h 25.7 mph /  41.4 km/h 96 % 0.0 in /  0 mm
20:57 12.1 °F /  -11.1 °C 11.5 °F /  -11.4 °C 1015.8 in /  34395 hPa WSW 12.9 mph /  20.8 km/h 25.7 mph /  41.4 km/h 96 % 0.0 in /  0 mm
21:02 12.1 °F /  -11.1 °C 11.5 °F /  -11.4 °C 1015.8 in /  34395 hPa WNW 14.5 mph /  23.3 km/h 22.5 mph /  36.2 km/h 96 % 0.0 in /  0 mm
21:07 12.1 °F /  -11.1 °C 11.5 °F /  -11.4 °C 1016.1 in /  34405.1 hPa West 9.7 mph /  15.6 km/h 22.5 mph /  36.2 km/h 96 % 0.0 in /  0 mm
21:12 12.1 °F /  -11.1 °C 11.5 °F /  -11.4 °C 1016.1 in /  34405.1 hPa WSW 9.7 mph /  15.6 km/h 22.5 mph /  36.2 km/h 96 % 0.0 in /  0 mm
21:17 12.1 °F /  -11.1 °C 11.5 °F /  -11.4 °C 1015.8 in /  34395 hPa WSW 8.0 mph /  12.9 km/h 29.0 mph /  46.7 km/h 96 % 0.0 in /  0 mm
21:22 12.1 °F /  -11.1 °C 11.5 °F /  -11.4 °C 1015.8 in /  34395 hPa WNW 4.8 mph /  7.7 km/h 29.0 mph /  46.7 km/h 96 % 0.0 in /  0 mm
21:27 12.1 °F /  -11.1 °C 11.5 °F /  -11.4 °C 1016.1 in /  34405.1 hPa West 11.3 mph /  18.2 km/h 19.3 mph /  31.1 km/h 96 % 0.0 in /  0 mm
21:32 12.1 °F /  -11.1 °C 11.5 °F /  -11.4 °C 1015.8 in /  34395 hPa West 9.7 mph /  15.6 km/h 20.9 mph /  33.6 km/h 96 % 0.0 in /  0 mm
21:37 12.1 °F /  -11.1 °C 11.5 °F /  -11.4 °C 1015.8 in /  34395 hPa WSW 12.9 mph /  20.8 km/h 20.9 mph /  33.6 km/h 96 % 0.0 in /  0 mm
21:42 12.1 °F /  -11.1 °C 11.5 °F /  -11.4 °C 1015.8 in /  34395 hPa WNW 12.9 mph /  20.8 km/h 25.7 mph /  41.4 km/h 96 % 0.0 in /  0 mm
21:47 12.1 °F /  -11.1 °C 11.5 °F /  -11.4 °C 1015.8 in /  34395 hPa West 11.3 mph /  18.2 km/h 25.7 mph /  41.4 km/h 96 % 0.0 in /  0 mm
21:57 12.1 °F /  -11.1 °C 11.5 °F /  -11.4 °C 1015.8 in /  34395 hPa WNW 12.9 mph /  20.8 km/h 24.1 mph /  38.8 km/h 96 % 0.0 in /  0 mm
22:02 12.1 °F /  -11.1 °C 11.5 °F /  -11.4 °C 1015.8 in /  34395 hPa WNW 9.7 mph /  15.6 km/h 24.1 mph /  38.8 km/h 96 % 0.0 in /  0 mm
22:07 12.1 °F /  -11.1 °C 11.5 °F /  -11.4 °C 1015.8 in /  34395 hPa WNW 6.4 mph /  10.3 km/h 24.1 mph /  38.8 km/h 96 % 0.0 in /  0 mm
22:12 12.1 °F /  -11.1 °C 11.3 °F /  -11.5 °C 1015.8 in /  34395 hPa West 22.5 mph /  36.2 km/h 24.1 mph /  38.8 km/h 95 % 0.0 in /  0 mm
22:17 12.1 °F /  -11.1 °C 11.3 °F /  -11.5 °C 1016.1 in /  34405.1 hPa WNW 12.9 mph /  20.8 km/h 29.0 mph /  46.7 km/h 95 % 0.0 in /  0 mm
22:22 12.1 °F /  -11.1 °C 11.3 °F /  -11.5 °C 1015.8 in /  34395 hPa West 14.5 mph /  23.3 km/h 29.0 mph /  46.7 km/h 95 % 0.0 in /  0 mm
22:27 12.1 °F /  -11.1 °C 11.3 °F /  -11.5 °C 1016.1 in /  34405.1 hPa West 17.7 mph /  28.5 km/h 29.0 mph /  46.7 km/h 95 % 0.0 in /  0 mm
22:32 12.1 °F /  -11.1 °C 11.3 °F /  -11.5 °C 1016.1 in /  34405.1 hPa WNW 16.1 mph /  25.9 km/h 24.1 mph /  38.8 km/h 95 % 0.0 in /  0 mm
22:37 12.1 °F /  -11.1 °C 11.3 °F /  -11.5 °C 1016.1 in /  34405.1 hPa WSW 20.9 mph /  33.6 km/h 24.1 mph /  38.8 km/h 95 % 0.0 in /  0 mm
22:42 12.1 °F /  -11.1 °C 11.3 °F /  -11.5 °C 1016.1 in /  34405.1 hPa West 19.3 mph /  31.1 km/h 24.1 mph /  38.8 km/h 95 % 0.0 in /  0 mm
22:47 12.1 °F /  -11.1 °C 11.3 °F /  -11.5 °C 1015.8 in /  34395 hPa West 9.7 mph /  15.6 km/h 24.1 mph /  38.8 km/h 95 % 0.0 in /  0 mm
22:52 12.2 °F /  -11 °C 11.3 °F /  -11.5 °C 1015.8 in /  34395 hPa West 20.9 mph /  33.6 km/h 25.7 mph /  41.4 km/h 94 % 0.0 in /  0 mm
22:57 12.3 °F /  -10.9 °C 11.2 °F /  -11.6 °C 1015.8 in /  34395 hPa WNW 12.9 mph /  20.8 km/h 27.4 mph /  44.1 km/h 93 % 0.0 in /  0 mm
23:02 12.3 °F /  -10.9 °C 11.2 °F /  -11.6 °C 1015.8 in /  34395 hPa West 19.3 mph /  31.1 km/h 27.4 mph /  44.1 km/h 93 % 0.0 in /  0 mm
23:07 12.3 °F /  -10.9 °C 11.2 °F /  -11.6 °C 1015.8 in /  34395 hPa WNW 12.9 mph /  20.8 km/h 25.7 mph /  41.4 km/h 93 % 0.0 in /  0 mm
23:12 12.3 °F /  -10.9 °C 11.2 °F /  -11.6 °C 1016.1 in /  34405.1 hPa West 12.9 mph /  20.8 km/h 24.1 mph /  38.8 km/h 93 % 0.0 in /  0 mm
23:17 12.3 °F /  -10.9 °C 11.2 °F /  -11.6 °C 1015.8 in /  34395 hPa WNW 9.7 mph /  15.6 km/h 25.7 mph /  41.4 km/h 93 % 0.3 in /  7.62 mm
23:22 12.3 °F /  -10.9 °C 11.2 °F /  -11.6 °C 1015.8 in /  34395 hPa West 9.7 mph /  15.6 km/h 25.7 mph /  41.4 km/h 93 % 0.3 in /  7.62 mm
23:27 12.2 °F /  -11 °C 11.3 °F /  -11.5 °C 1015.8 in /  34395 hPa WNW 16.1 mph /  25.9 km/h 25.7 mph /  41.4 km/h 94 % 0.3 in /  7.62 mm
23:32 12.1 °F /  -11.1 °C 11.2 °F /  -11.6 °C 1015.8 in /  34395 hPa WSW 14.5 mph /  23.3 km/h 24.1 mph /  38.8 km/h 94 % 0.3 in /  7.62 mm
23:37 12.1 °F /  -11.1 °C 11.2 °F /  -11.6 °C 1015.8 in /  34395 hPa West 9.7 mph /  15.6 km/h 24.1 mph /  38.8 km/h 94 % 0.3 in /  7.62 mm
23:47 12.0 °F /  -11.1 °C 11.2 °F /  -11.6 °C 1015.8 in /  34395 hPa West 11.3 mph /  18.2 km/h 24.1 mph /  38.8 km/h 95 % 0.3 in /  7.62 mm
23:52 12.0 °F /  -11.1 °C 11.2 °F /  -11.6 °C 1015.8 in /  34395 hPa West 11.3 mph /  18.2 km/h 20.9 mph /  33.6 km/h 95 % 0.3 in /  7.62 mm
23:57 12.1 °F /  -11.1 °C 11.2 °F /  -11.6 °C 1015.8 in /  34395 hPa West 9.7 mph /  15.6 km/h 24.1 mph /  38.8 km/h 94 % 0.3 in /  7.62 mm
Meteo18
Compliments of Weather Underground - 4 mb

Script developed by  Jim McMurry - jmcmurry@mwt.net Adapted for the template by  Wim van der Kuil - Leuven-Template.eu

You find our weather info also at:

European Weather Network

Weather Underground

Equipment we use:

Weather-station
Davis Vue

Weather-program
Meteobridge

Weather-server
Raspberry PI 2 B+

Provider
1 and 1

Davis Vue

Meteobridge

Raspberry PI 2 B+

1 and 1